sensor_id;sensor_type;location;lat;lon;timestamp;P1;durP1;ratioP1;P2;durP2;ratioP2
4317;SDS011;2172;53.576;9.934;2023-12-20T00:02:26;9.37;;;2.67;;
4317;SDS011;2172;53.576;9.934;2023-12-20T00:04:54;19.87;;;3.30;;
4317;SDS011;2172;53.576;9.934;2023-12-20T00:07:21;15.80;;;3.33;;
4317;SDS011;2172;53.576;9.934;2023-12-20T00:09:49;9.60;;;2.63;;
4317;SDS011;2172;53.576;9.934;2023-12-20T00:12:16;12.13;;;2.83;;
4317;SDS011;2172;53.576;9.934;2023-12-20T00:14:44;12.60;;;3.10;;
4317;SDS011;2172;53.576;9.934;2023-12-20T00:17:13;6.30;;;2.50;;
4317;SDS011;2172;53.576;9.934;2023-12-20T00:19:40;11.33;;;2.70;;
4317;SDS011;2172;53.576;9.934;2023-12-20T00:22:07;12.73;;;2.70;;
4317;SDS011;2172;53.576;9.934;2023-12-20T00:24:36;9.70;;;2.60;;
4317;SDS011;2172;53.576;9.934;2023-12-20T00:27:03;10.33;;;2.67;;
4317;SDS011;2172;53.576;9.934;2023-12-20T00:29:31;11.37;;;2.53;;
4317;SDS011;2172;53.576;9.934;2023-12-20T00:31:58;14.83;;;3.53;;
4317;SDS011;2172;53.576;9.934;2023-12-20T00:34:27;21.97;;;3.30;;
4317;SDS011;2172;53.576;9.934;2023-12-20T00:36:55;9.40;;;2.63;;
4317;SDS011;2172;53.576;9.934;2023-12-20T00:39:22;11.13;;;2.97;;
4317;SDS011;2172;53.576;9.934;2023-12-20T00:41:50;14.83;;;2.90;;
4317;SDS011;2172;53.576;9.934;2023-12-20T00:44:17;12.43;;;3.90;;
4317;SDS011;2172;53.576;9.934;2023-12-20T00:46:44;11.10;;;3.20;;
4317;SDS011;2172;53.576;9.934;2023-12-20T00:49:11;12.80;;;2.80;;
4317;SDS011;2172;53.576;9.934;2023-12-20T00:51:40;15.97;;;3.40;;
4317;SDS011;2172;53.576;9.934;2023-12-20T00:54:07;10.43;;;3.33;;
4317;SDS011;2172;53.576;9.934;2023-12-20T00:56:35;5.53;;;2.70;;
4317;SDS011;2172;53.576;9.934;2023-12-20T00:59:03;12.77;;;3.30;;
4317;SDS011;2172;53.576;9.934;2023-12-20T01:01:31;6.13;;;2.47;;
4317;SDS011;2172;53.576;9.934;2023-12-20T01:03:59;10.07;;;3.10;;
4317;SDS011;2172;53.576;9.934;2023-12-20T01:06:26;13.60;;;3.60;;
4317;SDS011;2172;53.576;9.934;2023-12-20T01:08:55;13.23;;;3.03;;
4317;SDS011;2172;53.576;9.934;2023-12-20T01:11:22;12.10;;;3.40;;
4317;SDS011;2172;53.576;9.934;2023-12-20T01:13:50;21.43;;;3.97;;
4317;SDS011;2172;53.576;9.934;2023-12-20T01:16:17;13.63;;;3.83;;
4317;SDS011;2172;53.576;9.934;2023-12-20T01:18:46;13.10;;;3.37;;
4317;SDS011;2172;53.576;9.934;2023-12-20T01:21:14;16.50;;;3.07;;
4317;SDS011;2172;53.576;9.934;2023-12-20T01:23:42;12.17;;;2.50;;
4317;SDS011;2172;53.576;9.934;2023-12-20T01:26:11;15.40;;;2.90;;
4317;SDS011;2172;53.576;9.934;2023-12-20T01:28:38;12.43;;;2.47;;
4317;SDS011;2172;53.576;9.934;2023-12-20T01:31:06;12.20;;;2.90;;
4317;SDS011;2172;53.576;9.934;2023-12-20T01:33:33;11.87;;;2.53;;
4317;SDS011;2172;53.576;9.934;2023-12-20T01:36:01;12.23;;;2.83;;
4317;SDS011;2172;53.576;9.934;2023-12-20T01:38:29;9.47;;;2.53;;
4317;SDS011;2172;53.576;9.934;2023-12-20T01:40:57;12.73;;;2.73;;
4317;SDS011;2172;53.576;9.934;2023-12-20T01:43:26;21.03;;;3.10;;
4317;SDS011;2172;53.576;9.934;2023-12-20T01:45:54;13.17;;;2.80;;
4317;SDS011;2172;53.576;9.934;2023-12-20T01:48:23;9.00;;;3.43;;
4317;SDS011;2172;53.576;9.934;2023-12-20T01:50:51;13.73;;;2.60;;
4317;SDS011;2172;53.576;9.934;2023-12-20T01:53:19;10.40;;;3.03;;
4317;SDS011;2172;53.576;9.934;2023-12-20T01:55:48;9.10;;;2.20;;
4317;SDS011;2172;53.576;9.934;2023-12-20T01:58:17;10.50;;;3.20;;
4317;SDS011;2172;53.576;9.934;2023-12-20T02:00:47;9.00;;;3.83;;
4317;SDS011;2172;53.576;9.934;2023-12-20T02:03:15;7.60;;;2.47;;
4317;SDS011;2172;53.576;9.934;2023-12-20T02:05:43;9.13;;;2.37;;
4317;SDS011;2172;53.576;9.934;2023-12-20T02:08:11;11.13;;;3.23;;
4317;SDS011;2172;53.576;9.934;2023-12-20T02:10:39;8.73;;;2.53;;
4317;SDS011;2172;53.576;9.934;2023-12-20T02:13:07;11.50;;;2.00;;
4317;SDS011;2172;53.576;9.934;2023-12-20T02:15:35;9.77;;;3.53;;
4317;SDS011;2172;53.576;9.934;2023-12-20T02:18:04;8.17;;;2.43;;
4317;SDS011;2172;53.576;9.934;2023-12-20T02:20:32;12.43;;;3.63;;
4317;SDS011;2172;53.576;9.934;2023-12-20T02:23:01;14.77;;;2.80;;
4317;SDS011;2172;53.576;9.934;2023-12-20T02:25:28;10.20;;;3.10;;
4317;SDS011;2172;53.576;9.934;2023-12-20T02:27:56;8.53;;;3.50;;
4317;SDS011;2172;53.576;9.934;2023-12-20T02:30:23;15.67;;;3.10;;
4317;SDS011;2172;53.576;9.934;2023-12-20T02:32:51;13.27;;;3.57;;
4317;SDS011;2172;53.576;9.934;2023-12-20T02:35:18;11.40;;;2.50;;
4317;SDS011;2172;53.576;9.934;2023-12-20T02:37:46;14.13;;;2.90;;
4317;SDS011;2172;53.576;9.934;2023-12-20T02:40:14;12.10;;;2.60;;
4317;SDS011;2172;53.576;9.934;2023-12-20T02:42:42;13.07;;;2.77;;
4317;SDS011;2172;53.576;9.934;2023-12-20T02:45:10;8.00;;;2.40;;
4317;SDS011;2172;53.576;9.934;2023-12-20T02:47:38;9.50;;;2.87;;
4317;SDS011;2172;53.576;9.934;2023-12-20T02:50:05;18.13;;;3.43;;
4317;SDS011;2172;53.576;9.934;2023-12-20T02:52:33;10.40;;;2.77;;
4317;SDS011;2172;53.576;9.934;2023-12-20T02:55:01;7.27;;;2.67;;
4317;SDS011;2172;53.576;9.934;2023-12-20T02:57:30;13.60;;;3.53;;
4317;SDS011;2172;53.576;9.934;2023-12-20T02:59:58;11.50;;;3.40;;
4317;SDS011;2172;53.576;9.934;2023-12-20T03:02:26;11.17;;;2.60;;
4317;SDS011;2172;53.576;9.934;2023-12-20T03:04:53;10.70;;;3.30;;
4317;SDS011;2172;53.576;9.934;2023-12-20T03:07:20;11.07;;;3.13;;
4317;SDS011;2172;53.576;9.934;2023-12-20T03:09:48;14.83;;;3.80;;
4317;SDS011;2172;53.576;9.934;2023-12-20T03:12:15;6.67;;;2.53;;
4317;SDS011;2172;53.576;9.934;2023-12-20T03:14:44;12.20;;;3.97;;
4317;SDS011;2172;53.576;9.934;2023-12-20T03:17:11;15.03;;;3.57;;
4317;SDS011;2172;53.576;9.934;2023-12-20T03:19:39;7.60;;;2.73;;
4317;SDS011;2172;53.576;9.934;2023-12-20T03:22:07;14.17;;;3.40;;
4317;SDS011;2172;53.576;9.934;2023-12-20T03:24:34;6.80;;;3.10;;
4317;SDS011;2172;53.576;9.934;2023-12-20T03:27:02;14.23;;;2.77;;
4317;SDS011;2172;53.576;9.934;2023-12-20T03:29:30;9.53;;;2.67;;
4317;SDS011;2172;53.576;9.934;2023-12-20T03:31:58;8.03;;;2.43;;
4317;SDS011;2172;53.576;9.934;2023-12-20T03:34:26;7.50;;;2.80;;
4317;SDS011;2172;53.576;9.934;2023-12-20T03:36:54;18.13;;;3.63;;
4317;SDS011;2172;53.576;9.934;2023-12-20T03:39:22;9.83;;;2.73;;
4317;SDS011;2172;53.576;9.934;2023-12-20T03:41:49;12.80;;;3.40;;
4317;SDS011;2172;53.576;9.934;2023-12-20T03:44:17;9.00;;;2.67;;
4317;SDS011;2172;53.576;9.934;2023-12-20T03:46:44;6.63;;;1.93;;
4317;SDS011;2172;53.576;9.934;2023-12-20T03:49:13;12.10;;;2.77;;
4317;SDS011;2172;53.576;9.934;2023-12-20T03:51:41;9.83;;;2.70;;
4317;SDS011;2172;53.576;9.934;2023-12-20T03:54:08;21.20;;;3.30;;
4317;SDS011;2172;53.576;9.934;2023-12-20T03:56:36;10.60;;;2.30;;
4317;SDS011;2172;53.576;9.934;2023-12-20T03:59:03;13.30;;;3.30;;
4317;SDS011;2172;53.576;9.934;2023-12-20T04:01:31;20.00;;;3.30;;
4317;SDS011;2172;53.576;9.934;2023-12-20T04:03:58;6.13;;;2.60;;
4317;SDS011;2172;53.576;9.934;2023-12-20T04:06:27;8.50;;;3.00;;
4317;SDS011;2172;53.576;9.934;2023-12-20T04:08:55;9.67;;;2.87;;
4317;SDS011;2172;53.576;9.934;2023-12-20T04:11:22;10.97;;;2.60;;
4317;SDS011;2172;53.576;9.934;2023-12-20T04:13:49;6.83;;;2.20;;
4317;SDS011;2172;53.576;9.934;2023-12-20T04:16:17;12.00;;;2.80;;
4317;SDS011;2172;53.576;9.934;2023-12-20T04:18:44;12.20;;;2.73;;
4317;SDS011;2172;53.576;9.934;2023-12-20T04:21:12;10.17;;;2.63;;
4317;SDS011;2172;53.576;9.934;2023-12-20T04:23:41;9.33;;;2.33;;
4317;SDS011;2172;53.576;9.934;2023-12-20T04:26:08;8.53;;;2.33;;
4317;SDS011;2172;53.576;9.934;2023-12-20T04:28:36;10.13;;;2.63;;
4317;SDS011;2172;53.576;9.934;2023-12-20T04:31:04;8.90;;;2.80;;
4317;SDS011;2172;53.576;9.934;2023-12-20T04:33:31;8.70;;;2.90;;
4317;SDS011;2172;53.576;9.934;2023-12-20T04:35:58;9.40;;;2.60;;
4317;SDS011;2172;53.576;9.934;2023-12-20T04:38:26;10.80;;;2.60;;
4317;SDS011;2172;53.576;9.934;2023-12-20T04:40:55;9.43;;;2.67;;
4317;SDS011;2172;53.576;9.934;2023-12-20T04:43:22;10.53;;;3.70;;
4317;SDS011;2172;53.576;9.934;2023-12-20T04:45:50;7.40;;;2.60;;
4317;SDS011;2172;53.576;9.934;2023-12-20T04:48:18;10.03;;;3.20;;
4317;SDS011;2172;53.576;9.934;2023-12-20T04:50:45;12.33;;;3.20;;
4317;SDS011;2172;53.576;9.934;2023-12-20T04:53:13;10.03;;;2.73;;
4317;SDS011;2172;53.576;9.934;2023-12-20T04:55:40;5.63;;;3.17;;
4317;SDS011;2172;53.576;9.934;2023-12-20T04:58:09;9.57;;;4.23;;
4317;SDS011;2172;53.576;9.934;2023-12-20T05:00:36;11.80;;;3.07;;
4317;SDS011;2172;53.576;9.934;2023-12-20T05:03:04;11.03;;;3.40;;
4317;SDS011;2172;53.576;9.934;2023-12-20T05:05:32;10.80;;;3.80;;
4317;SDS011;2172;53.576;9.934;2023-12-20T05:07:59;9.17;;;3.40;;
4317;SDS011;2172;53.576;9.934;2023-12-20T05:10:27;10.90;;;2.87;;
4317;SDS011;2172;53.576;9.934;2023-12-20T05:12:54;8.20;;;3.30;;
4317;SDS011;2172;53.576;9.934;2023-12-20T05:15:23;15.90;;;3.43;;
4317;SDS011;2172;53.576;9.934;2023-12-20T05:17:51;24.37;;;2.80;;
4317;SDS011;2172;53.576;9.934;2023-12-20T05:20:18;4.90;;;2.90;;
4317;SDS011;2172;53.576;9.934;2023-12-20T05:22:46;16.00;;;3.13;;
4317;SDS011;2172;53.576;9.934;2023-12-20T05:25:13;14.63;;;3.97;;
4317;SDS011;2172;53.576;9.934;2023-12-20T05:27:41;10.07;;;3.47;;
4317;SDS011;2172;53.576;9.934;2023-12-20T05:30:09;9.90;;;3.27;;
4317;SDS011;2172;53.576;9.934;2023-12-20T05:32:38;14.37;;;5.00;;
4317;SDS011;2172;53.576;9.934;2023-12-20T05:35:06;6.63;;;2.63;;
4317;SDS011;2172;53.576;9.934;2023-12-20T05:37:34;10.30;;;4.20;;
4317;SDS011;2172;53.576;9.934;2023-12-20T05:40:01;14.07;;;4.47;;
4317;SDS011;2172;53.576;9.934;2023-12-20T05:42:29;15.67;;;4.00;;
4317;SDS011;2172;53.576;9.934;2023-12-20T05:44:57;11.43;;;3.70;;
4317;SDS011;2172;53.576;9.934;2023-12-20T05:47:24;14.37;;;3.60;;
4317;SDS011;2172;53.576;9.934;2023-12-20T05:49:53;12.30;;;5.17;;
4317;SDS011;2172;53.576;9.934;2023-12-20T05:52:21;8.77;;;3.27;;
4317;SDS011;2172;53.576;9.934;2023-12-20T05:54:48;12.50;;;3.57;;
4317;SDS011;2172;53.576;9.934;2023-12-20T05:57:16;20.70;;;4.30;;
4317;SDS011;2172;53.576;9.934;2023-12-20T05:59:43;11.80;;;3.60;;
4317;SDS011;2172;53.576;9.934;2023-12-20T06:02:11;14.23;;;3.50;;
4317;SDS011;2172;53.576;9.934;2023-12-20T06:04:41;12.10;;;3.17;;
4317;SDS011;2172;53.576;9.934;2023-12-20T06:07:12;10.20;;;3.83;;
4317;SDS011;2172;53.576;9.934;2023-12-20T06:09:40;11.40;;;3.20;;
4317;SDS011;2172;53.576;9.934;2023-12-20T06:12:08;16.57;;;4.27;;
4317;SDS011;2172;53.576;9.934;2023-12-20T06:14:35;13.33;;;3.23;;
4317;SDS011;2172;53.576;9.934;2023-12-20T06:17:03;8.13;;;3.10;;
4317;SDS011;2172;53.576;9.934;2023-12-20T06:19:30;11.90;;;3.93;;
4317;SDS011;2172;53.576;9.934;2023-12-20T06:21:58;15.90;;;3.60;;
4317;SDS011;2172;53.576;9.934;2023-12-20T06:24:27;11.07;;;3.40;;
4317;SDS011;2172;53.576;9.934;2023-12-20T06:26:55;11.90;;;4.17;;
4317;SDS011;2172;53.576;9.934;2023-12-20T06:29:22;17.13;;;4.17;;
4317;SDS011;2172;53.576;9.934;2023-12-20T06:31:50;17.57;;;4.30;;
4317;SDS011;2172;53.576;9.934;2023-12-20T06:34:17;18.77;;;6.43;;
4317;SDS011;2172;53.576;9.934;2023-12-20T06:36:45;13.27;;;3.77;;
4317;SDS011;2172;53.576;9.934;2023-12-20T06:39:32;18.50;;;5.23;;
4317;SDS011;2172;53.576;9.934;2023-12-20T06:42:00;14.10;;;4.20;;
4317;SDS011;2172;53.576;9.934;2023-12-20T06:44:27;14.63;;;4.27;;
4317;SDS011;2172;53.576;9.934;2023-12-20T06:46:55;7.67;;;3.23;;
4317;SDS011;2172;53.576;9.934;2023-12-20T06:49:22;15.87;;;4.77;;
4317;SDS011;2172;53.576;9.934;2023-12-20T06:51:50;13.23;;;4.60;;
4317;SDS011;2172;53.576;9.934;2023-12-20T06:54:18;11.57;;;5.27;;
4317;SDS011;2172;53.576;9.934;2023-12-20T06:56:47;9.80;;;4.57;;
4317;SDS011;2172;53.576;9.934;2023-12-20T06:59:14;11.50;;;3.40;;
4317;SDS011;2172;53.576;9.934;2023-12-20T07:01:42;10.33;;;3.30;;
4317;SDS011;2172;53.576;9.934;2023-12-20T07:04:13;11.60;;;3.00;;
4317;SDS011;2172;53.576;9.934;2023-12-20T07:06:41;17.53;;;3.80;;
4317;SDS011;2172;53.576;9.934;2023-12-20T07:09:09;14.30;;;3.50;;
4317;SDS011;2172;53.576;9.934;2023-12-20T07:11:38;13.83;;;3.80;;
4317;SDS011;2172;53.576;9.934;2023-12-20T07:14:07;10.60;;;3.53;;
4317;SDS011;2172;53.576;9.934;2023-12-20T07:16:35;6.97;;;3.80;;
4317;SDS011;2172;53.576;9.934;2023-12-20T07:19:02;13.63;;;2.70;;
4317;SDS011;2172;53.576;9.934;2023-12-20T07:21:30;17.03;;;4.40;;
4317;SDS011;2172;53.576;9.934;2023-12-20T07:23:57;12.67;;;3.77;;
4317;SDS011;2172;53.576;9.934;2023-12-20T07:26:25;10.73;;;3.87;;
4317;SDS011;2172;53.576;9.934;2023-12-20T07:28:53;23.30;;;4.77;;
4317;SDS011;2172;53.576;9.934;2023-12-20T07:31:22;16.17;;;4.33;;
4317;SDS011;2172;53.576;9.934;2023-12-20T07:33:49;18.50;;;4.10;;
4317;SDS011;2172;53.576;9.934;2023-12-20T07:36:17;21.37;;;3.90;;
4317;SDS011;2172;53.576;9.934;2023-12-20T07:38:46;14.23;;;4.10;;
4317;SDS011;2172;53.576;9.934;2023-12-20T07:41:14;14.47;;;4.93;;
4317;SDS011;2172;53.576;9.934;2023-12-20T07:43:42;18.93;;;6.73;;
4317;SDS011;2172;53.576;9.934;2023-12-20T07:46:09;13.23;;;4.90;;
4317;SDS011;2172;53.576;9.934;2023-12-20T07:48:39;17.10;;;6.40;;
4317;SDS011;2172;53.576;9.934;2023-12-20T07:51:06;11.53;;;4.00;;
4317;SDS011;2172;53.576;9.934;2023-12-20T07:53:35;14.83;;;3.70;;
4317;SDS011;2172;53.576;9.934;2023-12-20T07:56:03;9.93;;;4.23;;
4317;SDS011;2172;53.576;9.934;2023-12-20T07:58:41;10.03;;;5.30;;
4317;SDS011;2172;53.576;9.934;2023-12-20T08:01:08;16.30;;;4.10;;
4317;SDS011;2172;53.576;9.934;2023-12-20T08:03:36;12.60;;;3.67;;
4317;SDS011;2172;53.576;9.934;2023-12-20T08:06:05;16.37;;;3.70;;
4317;SDS011;2172;53.576;9.934;2023-12-20T08:08:33;14.67;;;4.53;;
4317;SDS011;2172;53.576;9.934;2023-12-20T08:11:00;13.57;;;4.63;;
4317;SDS011;2172;53.576;9.934;2023-12-20T08:13:28;13.13;;;3.80;;
4317;SDS011;2172;53.576;9.934;2023-12-20T08:15:55;18.63;;;3.90;;
4317;SDS011;2172;53.576;9.934;2023-12-20T08:18:26;19.47;;;3.40;;
4317;SDS011;2172;53.576;9.934;2023-12-20T08:20:55;20.30;;;5.33;;
4317;SDS011;2172;53.576;9.934;2023-12-20T08:23:22;14.77;;;4.13;;
4317;SDS011;2172;53.576;9.934;2023-12-20T08:25:50;15.60;;;4.50;;
4317;SDS011;2172;53.576;9.934;2023-12-20T08:28:17;11.03;;;3.90;;
4317;SDS011;2172;53.576;9.934;2023-12-20T08:30:45;10.73;;;3.63;;
4317;SDS011;2172;53.576;9.934;2023-12-20T08:33:12;13.43;;;3.57;;
4317;SDS011;2172;53.576;9.934;2023-12-20T08:35:40;17.17;;;4.70;;
4317;SDS011;2172;53.576;9.934;2023-12-20T08:38:09;19.67;;;4.20;;
4317;SDS011;2172;53.576;9.934;2023-12-20T08:40:37;18.73;;;4.80;;
4317;SDS011;2172;53.576;9.934;2023-12-20T08:43:04;12.87;;;3.77;;
4317;SDS011;2172;53.576;9.934;2023-12-20T08:45:32;17.30;;;4.37;;
4317;SDS011;2172;53.576;9.934;2023-12-20T08:47:59;19.10;;;5.00;;
4317;SDS011;2172;53.576;9.934;2023-12-20T08:50:27;10.30;;;5.17;;
4317;SDS011;2172;53.576;9.934;2023-12-20T08:52:55;14.33;;;4.70;;
4317;SDS011;2172;53.576;9.934;2023-12-20T08:55:24;14.27;;;4.37;;
4317;SDS011;2172;53.576;9.934;2023-12-20T08:57:53;11.73;;;3.60;;
4317;SDS011;2172;53.576;9.934;2023-12-20T09:00:21;14.97;;;3.30;;
4317;SDS011;2172;53.576;9.934;2023-12-20T09:02:49;15.43;;;3.93;;
4317;SDS011;2172;53.576;9.934;2023-12-20T09:05:17;13.67;;;3.73;;
4317;SDS011;2172;53.576;9.934;2023-12-20T09:07:44;18.97;;;4.13;;
4317;SDS011;2172;53.576;9.934;2023-12-20T09:10:12;9.97;;;2.83;;
4317;SDS011;2172;53.576;9.934;2023-12-20T09:12:41;9.60;;;3.20;;
4317;SDS011;2172;53.576;9.934;2023-12-20T09:15:08;15.10;;;4.60;;
4317;SDS011;2172;53.576;9.934;2023-12-20T09:17:36;9.50;;;3.23;;
4317;SDS011;2172;53.576;9.934;2023-12-20T09:20:04;15.10;;;3.60;;
4317;SDS011;2172;53.576;9.934;2023-12-20T09:22:55;11.43;;;2.43;;
4317;SDS011;2172;53.576;9.934;2023-12-20T09:25:23;6.60;;;2.30;;
4317;SDS011;2172;53.576;9.934;2023-12-20T09:27:52;4.17;;;1.77;;
4317;SDS011;2172;53.576;9.934;2023-12-20T09:30:20;5.40;;;2.07;;
4317;SDS011;2172;53.576;9.934;2023-12-20T09:32:47;7.43;;;3.00;;
4317;SDS011;2172;53.576;9.934;2023-12-20T09:35:15;7.50;;;3.00;;
4317;SDS011;2172;53.576;9.934;2023-12-20T09:37:42;7.10;;;2.40;;
4317;SDS011;2172;53.576;9.934;2023-12-20T09:40:12;6.47;;;2.40;;
4317;SDS011;2172;53.576;9.934;2023-12-20T09:42:43;3.20;;;2.10;;
4317;SDS011;2172;53.576;9.934;2023-12-20T09:45:17;4.80;;;1.57;;
4317;SDS011;2172;53.576;9.934;2023-12-20T09:47:48;3.30;;;1.87;;
4317;SDS011;2172;53.576;9.934;2023-12-20T09:50:16;2.70;;;1.17;;
4317;SDS011;2172;53.576;9.934;2023-12-20T09:52:45;2.90;;;1.10;;
4317;SDS011;2172;53.576;9.934;2023-12-20T09:55:14;4.47;;;1.30;;
4317;SDS011;2172;53.576;9.934;2023-12-20T09:57:42;3.60;;;1.00;;
4317;SDS011;2172;53.576;9.934;2023-12-20T10:00:10;5.43;;;1.30;;
4317;SDS011;2172;53.576;9.934;2023-12-20T10:02:50;9.83;;;1.43;;
4317;SDS011;2172;53.576;9.934;2023-12-20T10:05:23;2.03;;;0.93;;
4317;SDS011;2172;53.576;9.934;2023-12-20T10:07:53;3.50;;;1.27;;
4317;SDS011;2172;53.576;9.934;2023-12-20T10:10:21;3.10;;;1.10;;
4317;SDS011;2172;53.576;9.934;2023-12-20T10:13:00;3.87;;;1.10;;
4317;SDS011;2172;53.576;9.934;2023-12-20T10:15:29;3.10;;;1.60;;
4317;SDS011;2172;53.576;9.934;2023-12-20T10:17:58;4.97;;;1.03;;
4317;SDS011;2172;53.576;9.934;2023-12-20T10:20:26;3.77;;;1.20;;
4317;SDS011;2172;53.576;9.934;2023-12-20T10:22:55;2.57;;;1.00;;
4317;SDS011;2172;53.576;9.934;2023-12-20T10:25:23;2.07;;;1.20;;
4317;SDS011;2172;53.576;9.934;2023-12-20T10:30:36;2.70;;;1.43;;
4317;SDS011;2172;53.576;9.934;2023-12-20T10:33:06;1.73;;;1.20;;
4317;SDS011;2172;53.576;9.934;2023-12-20T10:35:35;5.80;;;1.87;;
4317;SDS011;2172;53.576;9.934;2023-12-20T10:38:03;4.70;;;1.43;;
4317;SDS011;2172;53.576;9.934;2023-12-20T10:40:34;3.13;;;1.30;;
4317;SDS011;2172;53.576;9.934;2023-12-20T10:43:03;3.30;;;1.60;;
4317;SDS011;2172;53.576;9.934;2023-12-20T10:45:31;2.90;;;1.53;;
4317;SDS011;2172;53.576;9.934;2023-12-20T10:47:59;5.23;;;1.70;;
4317;SDS011;2172;53.576;9.934;2023-12-20T10:50:30;4.70;;;1.60;;
4317;SDS011;2172;53.576;9.934;2023-12-20T10:52:58;3.63;;;1.47;;
4317;SDS011;2172;53.576;9.934;2023-12-20T10:55:25;4.70;;;1.87;;
4317;SDS011;2172;53.576;9.934;2023-12-20T10:57:53;3.33;;;1.30;;
4317;SDS011;2172;53.576;9.934;2023-12-20T11:00:24;3.20;;;1.07;;
4317;SDS011;2172;53.576;9.934;2023-12-20T11:02:52;8.40;;;1.37;;
4317;SDS011;2172;53.576;9.934;2023-12-20T11:05:23;5.73;;;1.33;;
4317;SDS011;2172;53.576;9.934;2023-12-20T11:08:06;11.20;;;3.10;;
4317;SDS011;2172;53.576;9.934;2023-12-20T11:10:39;6.63;;;2.77;;
4317;SDS011;2172;53.576;9.934;2023-12-20T11:13:12;7.90;;;1.70;;
4317;SDS011;2172;53.576;9.934;2023-12-20T11:15:44;8.20;;;2.33;;
4317;SDS011;2172;53.576;9.934;2023-12-20T11:18:11;4.20;;;1.73;;
4317;SDS011;2172;53.576;9.934;2023-12-20T11:20:39;7.43;;;1.73;;
4317;SDS011;2172;53.576;9.934;2023-12-20T11:23:09;4.60;;;1.40;;
4317;SDS011;2172;53.576;9.934;2023-12-20T11:25:46;4.80;;;1.73;;
4317;SDS011;2172;53.576;9.934;2023-12-20T11:28:14;7.60;;;2.10;;
4317;SDS011;2172;53.576;9.934;2023-12-20T11:30:46;7.23;;;2.27;;
4317;SDS011;2172;53.576;9.934;2023-12-20T11:33:14;10.30;;;2.50;;
4317;SDS011;2172;53.576;9.934;2023-12-20T11:35:42;7.70;;;1.57;;
4317;SDS011;2172;53.576;9.934;2023-12-20T11:38:11;8.57;;;1.40;;
4317;SDS011;2172;53.576;9.934;2023-12-20T11:40:41;5.63;;;1.67;;
4317;SDS011;2172;53.576;9.934;2023-12-20T11:43:09;6.90;;;1.80;;
4317;SDS011;2172;53.576;9.934;2023-12-20T11:45:36;7.50;;;2.07;;
4317;SDS011;2172;53.576;9.934;2023-12-20T11:48:04;12.90;;;2.53;;
4317;SDS011;2172;53.576;9.934;2023-12-20T11:50:33;14.63;;;2.47;;
4317;SDS011;2172;53.576;9.934;2023-12-20T11:53:01;11.93;;;2.87;;
4317;SDS011;2172;53.576;9.934;2023-12-20T11:55:30;9.57;;;2.40;;
4317;SDS011;2172;53.576;9.934;2023-12-20T11:57:57;8.73;;;2.70;;
4317;SDS011;2172;53.576;9.934;2023-12-20T12:00:25;6.33;;;2.90;;
4317;SDS011;2172;53.576;9.934;2023-12-20T12:02:56;8.63;;;2.43;;
4317;SDS011;2172;53.576;9.934;2023-12-20T12:05:24;8.90;;;1.60;;
4317;SDS011;2172;53.576;9.934;2023-12-20T12:07:52;9.93;;;3.20;;
4317;SDS011;2172;53.576;9.934;2023-12-20T12:10:20;7.00;;;2.83;;
4317;SDS011;2172;53.576;9.934;2023-12-20T12:12:49;9.67;;;2.50;;
4317;SDS011;2172;53.576;9.934;2023-12-20T12:15:17;8.03;;;2.97;;
4317;SDS011;2172;53.576;9.934;2023-12-20T12:17:44;8.37;;;3.10;;
4317;SDS011;2172;53.576;9.934;2023-12-20T12:20:20;16.63;;;3.00;;
4317;SDS011;2172;53.576;9.934;2023-12-20T12:22:56;11.70;;;2.70;;
4317;SDS011;2172;53.576;9.934;2023-12-20T12:25:25;13.20;;;2.43;;
4317;SDS011;2172;53.576;9.934;2023-12-20T12:27:54;8.67;;;2.43;;
4317;SDS011;2172;53.576;9.934;2023-12-20T12:30:22;11.37;;;3.20;;
4317;SDS011;2172;53.576;9.934;2023-12-20T12:32:50;20.83;;;4.10;;
4317;SDS011;2172;53.576;9.934;2023-12-20T12:35:18;8.43;;;2.67;;
4317;SDS011;2172;53.576;9.934;2023-12-20T12:37:46;18.03;;;3.20;;
4317;SDS011;2172;53.576;9.934;2023-12-20T12:40:15;14.63;;;3.77;;
4317;SDS011;2172;53.576;9.934;2023-12-20T12:42:43;13.93;;;2.80;;
4317;SDS011;2172;53.576;9.934;2023-12-20T12:45:13;7.70;;;2.77;;
4317;SDS011;2172;53.576;9.934;2023-12-20T12:47:40;11.97;;;3.90;;
4317;SDS011;2172;53.576;9.934;2023-12-20T12:50:08;13.53;;;3.73;;
4317;SDS011;2172;53.576;9.934;2023-12-20T12:52:38;7.13;;;2.83;;
4317;SDS011;2172;53.576;9.934;2023-12-20T12:55:06;15.07;;;3.20;;
4317;SDS011;2172;53.576;9.934;2023-12-20T12:57:34;11.00;;;2.47;;
4317;SDS011;2172;53.576;9.934;2023-12-20T13:00:01;12.13;;;2.60;;
4317;SDS011;2172;53.576;9.934;2023-12-20T13:02:33;11.67;;;3.10;;
4317;SDS011;2172;53.576;9.934;2023-12-20T13:05:03;14.27;;;3.40;;
4317;SDS011;2172;53.576;9.934;2023-12-20T13:07:31;17.93;;;3.80;;
4317;SDS011;2172;53.576;9.934;2023-12-20T13:09:58;13.70;;;3.80;;
4317;SDS011;2172;53.576;9.934;2023-12-20T13:12:26;12.20;;;3.13;;
4317;SDS011;2172;53.576;9.934;2023-12-20T13:14:54;14.73;;;3.10;;
4317;SDS011;2172;53.576;9.934;2023-12-20T13:17:22;17.23;;;3.50;;
4317;SDS011;2172;53.576;9.934;2023-12-20T13:19:51;12.20;;;3.80;;
4317;SDS011;2172;53.576;9.934;2023-12-20T13:22:18;12.70;;;3.70;;
4317;SDS011;2172;53.576;9.934;2023-12-20T13:24:46;13.70;;;4.27;;
4317;SDS011;2172;53.576;9.934;2023-12-20T13:27:14;13.90;;;3.70;;
4317;SDS011;2172;53.576;9.934;2023-12-20T13:29:41;14.20;;;4.47;;
4317;SDS011;2172;53.576;9.934;2023-12-20T13:32:09;10.30;;;3.30;;
4317;SDS011;2172;53.576;9.934;2023-12-20T13:34:36;17.00;;;3.73;;
4317;SDS011;2172;53.576;9.934;2023-12-20T13:37:05;19.07;;;4.40;;
4317;SDS011;2172;53.576;9.934;2023-12-20T13:39:33;17.03;;;3.87;;
4317;SDS011;2172;53.576;9.934;2023-12-20T13:42:00;19.20;;;4.70;;
4317;SDS011;2172;53.576;9.934;2023-12-20T13:44:28;16.93;;;4.03;;
4317;SDS011;2172;53.576;9.934;2023-12-20T13:46:56;14.90;;;4.73;;
4317;SDS011;2172;53.576;9.934;2023-12-20T13:49:23;20.73;;;4.60;;
4317;SDS011;2172;53.576;9.934;2023-12-20T13:51:53;13.63;;;4.00;;
4317;SDS011;2172;53.576;9.934;2023-12-20T13:54:22;23.90;;;5.40;;
4317;SDS011;2172;53.576;9.934;2023-12-20T13:56:49;20.17;;;4.30;;
4317;SDS011;2172;53.576;9.934;2023-12-20T13:59:17;20.37;;;4.70;;
4317;SDS011;2172;53.576;9.934;2023-12-20T14:01:45;12.17;;;3.90;;
4317;SDS011;2172;53.576;9.934;2023-12-20T14:04:12;14.13;;;4.27;;
4317;SDS011;2172;53.576;9.934;2023-12-20T14:06:41;13.83;;;4.77;;
4317;SDS011;2172;53.576;9.934;2023-12-20T14:09:09;21.27;;;6.37;;
4317;SDS011;2172;53.576;9.934;2023-12-20T14:11:38;16.03;;;5.50;;
4317;SDS011;2172;53.576;9.934;2023-12-20T14:14:06;10.90;;;4.90;;
4317;SDS011;2172;53.576;9.934;2023-12-20T14:16:34;17.13;;;5.03;;
4317;SDS011;2172;53.576;9.934;2023-12-20T14:19:03;17.00;;;6.77;;
4317;SDS011;2172;53.576;9.934;2023-12-20T14:21:32;14.90;;;5.90;;
4317;SDS011;2172;53.576;9.934;2023-12-20T14:24:00;17.50;;;6.20;;
4317;SDS011;2172;53.576;9.934;2023-12-20T14:26:29;15.00;;;6.13;;
4317;SDS011;2172;53.576;9.934;2023-12-20T14:28:58;16.50;;;5.57;;
4317;SDS011;2172;53.576;9.934;2023-12-20T14:31:25;16.70;;;5.50;;
4317;SDS011;2172;53.576;9.934;2023-12-20T14:33:53;15.13;;;4.90;;
4317;SDS011;2172;53.576;9.934;2023-12-20T14:36:21;19.63;;;5.07;;
4317;SDS011;2172;53.576;9.934;2023-12-20T14:38:49;16.47;;;5.50;;
4317;SDS011;2172;53.576;9.934;2023-12-20T14:41:16;17.60;;;6.20;;
4317;SDS011;2172;53.576;9.934;2023-12-20T14:43:44;26.07;;;5.57;;
4317;SDS011;2172;53.576;9.934;2023-12-20T14:46:13;10.60;;;4.20;;
4317;SDS011;2172;53.576;9.934;2023-12-20T14:48:43;13.30;;;3.60;;
4317;SDS011;2172;53.576;9.934;2023-12-20T14:51:11;18.03;;;5.40;;
4317;SDS011;2172;53.576;9.934;2023-12-20T14:53:38;15.37;;;3.80;;
4317;SDS011;2172;53.576;9.934;2023-12-20T14:56:07;17.57;;;4.27;;
4317;SDS011;2172;53.576;9.934;2023-12-20T14:58:35;20.70;;;4.30;;
4317;SDS011;2172;53.576;9.934;2023-12-20T15:01:03;13.03;;;4.70;;
4317;SDS011;2172;53.576;9.934;2023-12-20T15:03:35;16.37;;;5.30;;
4317;SDS011;2172;53.576;9.934;2023-12-20T15:06:04;11.10;;;4.20;;
4317;SDS011;2172;53.576;9.934;2023-12-20T15:08:32;17.10;;;4.50;;
4317;SDS011;2172;53.576;9.934;2023-12-20T15:11:00;13.30;;;4.30;;
4317;SDS011;2172;53.576;9.934;2023-12-20T15:13:29;12.67;;;5.07;;
4317;SDS011;2172;53.576;9.934;2023-12-20T15:15:58;17.77;;;4.20;;